Time;durP1;ratioP1;P1;durP2;ratioP2;P2;SDS_P1;SDS_P2;PMS_P1;PMS_P2;Temp;Humidity;BMP_temperature;BMP_pressure;BME280_temperature;BME280_humidity;BME280_pressure;Samples;Min_cycle;Max_cycle;Signal;HPM_P1;HPM_P2
2024/04/09 00:01:48;;;;;;;18.92;15.55;;;;;;;;;;5382068;26;20000;-67
2024/04/09 00:04:14;;;;;;;16.27;14.63;;;;;;;;;;5380079;26;20338;-68
2024/04/09 00:06:40;;;;;;;16.80;14.05;;;;;;;;;;5382013;26;20292;-67
2024/04/09 00:09:06;;;;;;;16.30;14.70;;;;;;;;;;5381929;26;20081;-67
2024/04/09 00:11:33;;;;;;;16.42;13.43;;;;;;;;;;5381963;26;20004;-68
2024/04/09 00:13:58;;;;;;;15.82;14.27;;;20.80;99.90;;;;;;5381893;26;20048;-68
2024/04/09 00:16:27;;;;;;;18.83;14.13;;;20.60;99.90;;;;;;5381500;26;20434;-68
2024/04/09 00:18:53;;;;;;;17.33;13.50;;;20.50;99.90;;;;;;5381594;26;20015;-68
2024/04/09 00:21:23;;;;;;;17.20;13.73;;;20.50;99.90;;;;;;5381721;26;20520;-67
2024/04/09 00:23:49;;;;;;;16.35;13.48;;;20.30;99.90;;;;;;5380016;26;20011;-67
2024/04/09 00:26:16;;;;;;;18.13;13.48;;;20.20;99.90;;;;;;5381930;26;20004;-67
2024/04/09 00:28:42;;;;;;;15.45;13.48;;;20.30;99.90;;;;;;5381710;26;19996;-68
2024/04/09 00:31:08;;;;;;;14.57;12.95;;;20.30;99.90;;;;;;5381983;26;20461;-66
2024/04/09 00:33:33;;;;;;;16.08;13.80;;;20.30;99.90;;;;;;5381672;26;20000;-66
2024/04/09 00:35:59;;;;;;;17.27;14.38;;;;;;;;;;5381037;26;20072;-66
2024/04/09 00:41:29;;;;;;;18.58;13.85;;;;;;;;;;5380847;26;20077;-67
2024/04/09 00:43:55;;;;;;;16.20;13.82;;;;;;;;;;5381534;26;20036;-67
2024/04/09 00:46:21;;;;;;;15.60;13.27;;;;;;;;;;5381562;26;19997;-67
2024/04/09 00:48:48;;;;;;;16.17;14.43;;;;;;;;;;5381225;26;20019;-67
2024/04/09 00:51:16;;;;;;;15.13;13.13;;;;;;;;;;5380811;26;20008;-67
2024/04/09 00:53:43;;;;;;;16.55;12.80;;;;;;;;;;5368154;26;20000;-67
2024/04/09 00:56:09;;;;;;;15.82;13.98;;;;;;;;;;5380798;26;20093;-66
2024/04/09 00:58:35;;;;;;;13.57;12.18;;;;;;;;;;5381138;26;20004;-67
2024/04/09 01:01:03;;;;;;;18.63;13.13;;;;;;;;;;5379076;26;20018;-67
2024/04/09 01:03:30;;;;;;;14.60;12.15;;;;;;;;;;5381308;26;20118;-68
2024/04/09 01:05:56;;;;;;;14.18;12.05;;;;;;;;;;5379310;26;20011;-67
2024/04/09 01:08:22;;;;;;;17.17;12.57;;;;;;;;;;5380714;26;20000;-67
2024/04/09 01:10:49;;;;;;;16.73;13.10;;;;;;;;;;5378194;26;20004;-67
2024/04/09 01:13:15;;;;;;;14.70;13.07;;;;;;;;;;5380020;26;20004;-67
2024/04/09 01:15:41;;;;;;;14.90;12.65;;;;;;;;;;5379391;26;20015;-67
2024/04/09 01:18:08;;;;;;;15.70;13.02;;;;;;;;;;5379835;26;20040;-68
2024/04/09 01:20:34;;;;;;;13.82;12.10;;;;;;;;;;5377745;26;20468;-68
2024/04/09 01:23:00;;;;;;;16.05;12.65;;;;;;;;;;5380093;26;20018;-68
2024/04/09 01:25:27;;;;;;;14.10;12.65;;;;;;;;;;5380053;26;20008;-68
2024/04/09 01:27:54;;;;;;;15.98;12.73;;;;;;;;;;5378988;26;20010;-67
2024/04/09 01:30:21;;;;;;;16.40;12.30;;;;;;;;;;5379351;26;20339;-68
2024/04/09 01:32:49;;;;;;;14.10;12.45;;;;;;;;;;5379942;26;20004;-68
2024/04/09 01:35:15;;;;;;;13.55;12.10;;;;;;;;;;5379801;26;20077;-68
2024/04/09 01:37:41;;;;;;;13.80;12.13;;;;;;;;;;5379700;26;20014;-68
2024/04/09 01:40:07;;;;;;;14.10;12.20;;;;;;;;;;5379568;26;20015;-68
2024/04/09 01:42:33;;;;;;;13.65;12.20;;;;;;;;;;5377839;26;20328;-68
2024/04/09 01:45:00;;;;;;;13.65;12.10;;;;;;;;;;5379552;26;20004;-68
2024/04/09 01:47:26;;;;;;;16.80;12.75;;;;;;;;;;5377755;26;20043;-68
2024/04/09 01:49:52;;;;;;;15.30;12.63;;;;;;;;;;5379020;26;20018;-68
2024/04/09 01:52:19;;;;;;;13.15;11.85;;;;;;;;;;5378949;26;20012;-68
2024/04/09 01:54:46;;;;;;;15.38;11.60;;;;;;;;;;5379608;26;20000;-68
2024/04/09 01:57:12;;;;;;;19.35;13.10;;;;;;;;;;5379209;26;20459;-68
2024/04/09 01:59:41;;;;;;;19.20;13.27;;;;;;;;;;5379255;26;20016;-68
2024/04/09 02:02:07;;;;;;;14.20;12.57;;;;;;;;;;5379298;26;20331;-68
2024/04/09 02:04:34;;;;;;;14.88;12.23;;;;;;;;;;5379492;26;20004;-68
2024/04/09 02:07:00;;;;;;;20.08;13.45;;;;;;;;;;5379031;26;20036;-69
2024/04/09 02:09:27;;;;;;;14.57;12.15;;;;;;;;;;5379588;26;20303;-69
2024/04/09 02:11:53;;;;;;;14.93;13.32;;;;;;;;;;5379563;26;20105;-69
2024/04/09 02:14:20;;;;;;;14.27;12.50;;;;;;;;;;5378780;26;20077;-69
2024/04/09 02:16:46;;;;;;;15.15;12.80;;;;;;;;;;5378946;26;20008;-69
2024/04/09 02:19:12;;;;;;;14.52;13.02;;;;;;;;;;5379438;26;20462;-69
2024/04/09 02:21:38;;;;;;;14.82;13.30;;;;;;;;;;5379099;26;20008;-69
2024/04/09 02:24:05;;;;;;;16.05;13.38;;;;;;;;;;5379769;26;20004;-69
2024/04/09 02:26:31;;;;;;;14.60;12.75;;;;;;;;;;5379992;26;20000;-69
2024/04/09 02:28:58;;;;;;;14.85;13.27;;;;;;;;;;5379909;26;20335;-69
2024/04/09 02:31:24;;;;;;;14.07;12.38;;;;;;;;;;5379902;26;20004;-69
2024/04/09 02:33:50;;;;;;;16.70;13.38;;;;;;;;;;5380175;26;20028;-69
2024/04/09 02:36:16;;;;;;;17.08;14.25;;;;;;;;;;5378997;26;20008;-69
2024/04/09 02:38:43;;;;;;;16.05;14.07;;;;;;;;;;5381646;26;20000;-69
2024/04/09 02:41:14;;;;;;;15.48;13.77;;;;;;;;;;5383527;26;20040;-69
2024/04/09 02:43:40;;;;;;;20.27;15.15;;;;;;;;;;5382847;26;20000;-69
2024/04/09 02:46:06;;;;;;;16.27;13.77;;;;;;;;;;5383360;26;20050;-69
2024/04/09 02:48:32;;;;;;;16.52;13.27;;;;;;;;;;5383250;26;20012;-69
2024/04/09 02:50:59;;;;;;;15.43;13.82;;;;;;;;;;5381661;26;20012;-69
2024/04/09 02:53:25;;;;;;;15.57;13.75;;;;;;;;;;5382937;26;20088;-69
2024/04/09 02:56:08;;;;;;;16.85;13.68;;;;;;;;;;5380942;26;20008;-68
2024/04/09 02:58:35;;;;;;;16.02;13.80;;;;;;;;;;5383266;26;20011;-68
2024/04/09 03:01:08;;;;;;;16.35;14.82;;;;;;;;;;5380979;26;20004;-68
2024/04/09 03:03:35;;;;;;;17.95;14.85;;;;;;;;;;5383092;26;20014;-69
2024/04/09 03:06:07;;;;;;;16.85;14.05;;;;;;;;;;5382523;26;20419;-68
2024/04/09 03:08:34;;;;;;;16.85;13.57;;;;;;;;;;5383181;26;20019;-69
2024/04/09 03:11:00;;;;;;;16.70;14.52;;;;;;;;;;5357953;26;20029;-68
2024/04/09 03:13:26;;;;;;;15.90;14.30;;;;;;;;;;5383232;26;20004;-69
2024/04/09 03:15:52;;;;;;;16.65;14.55;;;;;;;;;;5380185;26;20012;-69
2024/04/09 03:18:18;;;;;;;17.52;14.75;;;;;;;;;;5370941;26;20086;-69
2024/04/09 03:20:44;;;;;;;16.42;14.18;;;;;;;;;;5348034;26;20079;-69
2024/04/09 03:23:10;;;;;;;20.90;16.83;;;;;;;;;;5383409;26;20398;-69
2024/04/09 03:25:36;;;;;;;18.33;14.40;;;;;;;;;;5363592;26;20349;-69
2024/04/09 03:28:03;;;;;;;17.15;15.07;;;;;;;;;;5373967;26;20004;-69
2024/04/09 03:30:29;;;;;;;16.45;14.80;;;;;;;;;;5382439;26;20004;-68
2024/04/09 03:32:55;;;;;;;22.25;16.23;;;;;;;;;;5375771;26;20000;-69
2024/04/09 03:35:21;;;;;;;18.52;15.45;;;;;;;;;;5388528;26;20005;-69
2024/04/09 03:37:47;;;;;;;20.58;15.93;;;;;;;;;;5365434;26;20015;-69
2024/04/09 03:40:13;;;;;;;20.45;16.80;;;;;;;;;;5348827;26;20004;-69
2024/04/09 03:42:39;;;;;;;19.73;15.13;;;;;;;;;;5399904;26;20454;-69
2024/04/09 03:45:09;;;;;;;18.67;16.63;;;;;;;;;;5366996;26;20077;-69
2024/04/09 03:47:35;;;;;;;18.33;16.35;;;;;;;;;;5370458;26;20019;-69
2024/04/09 03:50:01;;;;;;;20.15;18.08;;;;;;;;;;5378755;26;20508;-70
2024/04/09 03:52:27;;;;;;;21.60;17.48;;;;;;;;;;5377049;26;20011;-69
2024/04/09 03:54:53;;;;;;;21.15;18.75;;;;;;;;;;5379340;26;20008;-69
2024/04/09 03:57:19;;;;;;;19.92;17.75;;;;;;;;;;5376898;26;20000;-69
2024/04/09 03:59:45;;;;;;;20.67;18.42;;;;;;;;;;5382196;26;20016;-69
2024/04/09 04:02:11;;;;;;;21.80;18.45;;;;;;;;;;5367199;26;20015;-70
2024/04/09 04:04:38;;;;;;;22.38;18.83;;;;;;;;;;5356409;26;19996;-69
2024/04/09 04:07:04;;;;;;;23.13;19.33;;;;;;;;;;5365089;26;20056;-69
2024/04/09 04:09:30;;;;;;;23.40;18.35;;;;;;;;;;5375038;26;20322;-69
2024/04/09 04:11:56;;;;;;;24.42;17.95;;;;;;;;;;5368542;26;20014;-69
2024/04/09 04:14:22;;;;;;;21.42;17.80;;;;;;;;;;5371502;26;20045;-69
2024/04/09 04:16:48;;;;;;;20.52;18.17;;;;;;;;;;5370883;26;20005;-69
2024/04/09 04:19:16;;;;;;;20.25;17.70;;;;;;;;;;5350886;26;20000;-69
2024/04/09 04:21:42;;;;;;;19.63;17.30;;;;;;;;;;5373462;26;20007;-69
2024/04/09 04:24:08;;;;;;;22.63;17.15;;;;;;;;;;5364814;26;20342;-69
2024/04/09 04:26:34;;;;;;;19.13;17.13;;;;;;;;;;5374665;26;20007;-69
2024/04/09 04:29:01;;;;;;;20.27;17.58;;;;;;;;;;5367722;26;19997;-70
2024/04/09 04:31:27;;;;;;;18.55;16.65;;;;;;;;;;5371967;26;20111;-69
2024/04/09 04:33:54;;;;;;;22.90;17.05;;;;;;;;;;5380080;26;19996;-69
2024/04/09 04:36:20;;;;;;;22.65;17.90;;;;;;;;;;5371972;26;20004;-69
2024/04/09 04:38:47;;;;;;;22.30;16.52;;;;;;;;;;5381847;26;20044;-69
2024/04/09 04:41:13;;;;;;;19.20;16.95;;;;;;;;;;5382040;26;20073;-69
2024/04/09 04:43:40;;;;;;;18.98;16.98;;;;;;;;;;5381938;26;19992;-69
2024/04/09 04:46:07;;;;;;;20.88;17.42;;;;;;;;;;5379936;26;19999;-69
2024/04/09 04:48:33;;;;;;;21.85;18.13;;;;;;;;;;5372965;26;20000;-69
2024/04/09 04:50:59;;;;;;;19.13;17.10;;;;;;;;;;5381323;26;20019;-69
2024/04/09 04:53:25;;;;;;;21.88;18.63;;;;;;;;;;5379785;26;19996;-69
2024/04/09 04:55:52;;;;;;;20.15;18.02;;;;;;;;;;5378766;26;20070;-68
2024/04/09 04:58:21;;;;;;;21.48;17.20;;;;;;;;;;5381273;26;20003;-69
2024/04/09 05:00:47;;;;;;;21.85;16.83;;;;;;;;;;5356900;26;20008;-69
2024/04/09 05:03:13;;;;;;;20.08;16.92;;;;;;;;;;5362910;26;20004;-69
2024/04/09 05:05:39;;;;;;;21.05;17.63;;;;;;;;;;5380816;26;20000;-69
2024/04/09 05:08:05;;;;;;;20.23;17.02;;;;;;;;;;5381295;26;20000;-69
2024/04/09 05:10:31;;;;;;;20.70;18.23;;;;;;;;;;5381131;26;20008;-69
2024/04/09 05:12:57;;;;;;;20.13;17.63;;;;;;;;;;5381338;26;20004;-69
2024/04/09 05:15:24;;;;;;;20.27;17.55;;;;;;;;;;5381038;26;20290;-69
2024/04/09 05:17:51;;;;;;;20.25;17.48;;;;;;;;;;5380594;26;20350;-69
2024/04/09 05:20:17;;;;;;;23.60;17.83;;;;;;;;;;5381008;26;20005;-69
2024/04/09 05:22:47;;;;;;;19.52;17.42;;;;;;;;;;5381110;26;20020;-70
2024/04/09 05:25:14;;;;;;;19.88;17.13;;;;;;;;;;5380947;26;20008;-69
2024/04/09 05:27:40;;;;;;;19.88;17.42;;;;;;;;;;5380915;26;20000;-69
2024/04/09 05:30:07;;;;;;;19.77;17.50;;;;;;;;;;5378700;26;20004;-69
2024/04/09 05:32:42;;;;;;;20.33;17.85;;;;;;;;;;5378444;26;20019;-69
2024/04/09 05:35:09;;;;;;;23.88;18.15;;;;;;;;;;5380419;26;20019;-69
2024/04/09 05:37:35;;;;;;;21.95;18.55;;;;;;;;;;5378284;26;20019;-69
2024/04/09 05:40:02;;;;;;;23.33;19.30;;;;;;;;;;5380712;26;20050;-69
2024/04/09 05:42:28;;;;;;;21.40;18.63;;;;;;;;;;5378687;26;20167;-69
2024/04/09 05:44:54;;;;;;;23.02;19.40;;;;;;;;;;5379993;26;20004;-69
2024/04/09 05:47:20;;;;;;;22.60;19.60;;;;;;;;;;5380157;26;20004;-68
2024/04/09 05:49:47;;;;;;;24.52;20.92;;;;;;;;;;5380549;26;20408;-67
2024/04/09 05:52:14;;;;;;;24.52;20.33;;;;;;;;;;5379109;26;20481;-67
2024/04/09 05:54:41;;;;;;;26.70;20.08;;;;;;;;;;5380285;26;20040;-68
2024/04/09 05:57:07;;;;;;;24.58;20.63;;;;;;;;;;5380233;26;20015;-67
2024/04/09 05:59:34;;;;;;;25.95;20.90;;;;;;;;;;5380765;26;20004;-67
2024/04/09 06:02:00;;;;;;;23.50;19.58;;;;;;;;;;5380577;26;20010;-68
2024/04/09 06:04:26;;;;;;;25.65;19.75;;;;;;;;;;5380201;26;20000;-68
2024/04/09 06:06:52;;;;;;;25.70;20.67;;;;;;;;;;5380393;26;20014;-68
2024/04/09 06:09:19;;;;;;;26.83;20.05;;;;;;;;;;5355987;26;20005;-68
2024/04/09 06:11:45;;;;;;;26.58;21.48;;;;;;;;;;5380203;26;20004;-68
2024/04/09 06:14:11;;;;;;;30.02;21.10;;;;;;;;;;5382290;26;20349;-68
2024/04/09 06:16:37;;;;;;;23.90;21.05;;;;;;;;;;5382844;26;20000;-69
2024/04/09 06:19:03;;;;;;;27.02;21.88;;;;;;;;;;5381137;26;20011;-69
2024/04/09 06:21:29;;;;;;;23.33;20.83;;;;;;;;;;5383292;26;20015;-69
2024/04/09 06:23:55;;;;;;;26.33;21.52;;;;;;;;;;5383608;26;20046;-69
2024/04/09 06:26:21;;;;;;;30.23;21.58;;;;;;;;;;5383657;26;20015;-69
2024/04/09 06:28:47;;;;;;;24.70;20.58;;;;;;;;;;5382537;26;20338;-69
2024/04/09 06:31:13;;;;;;;23.23;20.95;;;;;;;;;;5381992;26;20004;-68
2024/04/09 06:33:40;;;;;;;27.77;22.35;;;;;;;;;;5370520;26;20015;-69
2024/04/09 06:36:06;;;;;;;29.65;22.90;;;;;;;;;;5383342;26;20081;-68
2024/04/09 06:38:32;;;;;;;22.70;20.27;;;;;;;;;;5382261;26;20016;-67
2024/04/09 06:40:59;;;;;;;28.98;20.52;;;;;;;;;;5382842;26;20015;-68
2024/04/09 06:43:25;;;;;;;28.35;22.73;;;;;;;;;;5383013;26;20000;-69
2024/04/09 06:45:51;;;;;;;29.63;22.80;;;;;;;;;;5382038;26;20004;-68
2024/04/09 06:48:17;;;;;;;27.63;21.95;;;;;;;;;;5381467;26;20134;-68
2024/04/09 06:50:43;;;;;;;27.20;21.88;;;;;;;;;;5383247;26;20004;-68
2024/04/09 06:53:09;;;;;;;27.85;21.33;;;;;;;;;;5383620;26;20095;-68
2024/04/09 06:55:35;;;;;;;24.55;20.73;;;;;;;;;;5382843;26;20018;-68
2024/04/09 06:58:01;;;;;;;25.45;21.67;;;;;;;;;;5369243;26;20474;-68
2024/04/09 07:00:27;;;;;;;27.20;21.80;;;;;;;;;;5399932;26;20115;-67
2024/04/09 07:02:53;;;;;;;26.83;20.02;;;;;;;;;;5382575;26;20074;-68
2024/04/09 07:05:19;;;;;;;29.30;22.27;;;;;;;;;;5381165;26;20000;-68
2024/04/09 07:13:52;;;;;;;25.60;21.55;;;;;;;;;;5367183;26;20010;-69
2024/04/09 07:16:43;;;;;;;27.25;21.48;;;;;;;;;;5357075;26;20000;-69
2024/04/09 07:19:09;;;;;;;25.95;21.45;;;;;;;;;;5372126;26;20374;-69
2024/04/09 07:21:36;;;;;;;25.98;19.42;;;;;;;;;;5382365;26;20059;-69
2024/04/09 07:24:03;;;;;;;25.17;19.45;;;;;;;;;;5382150;26;20077;-61
2024/04/09 07:26:29;;;;;;;26.92;20.15;;;;;;;;;;5377553;26;20008;-69
2024/04/09 07:28:55;;;;;;;25.90;20.75;;;;;;;;;;5374443;26;20458;-71
2024/04/09 07:31:21;;;;;;;27.92;21.38;;;;;;;;;;5382562;26;20010;-71
2024/04/09 07:33:48;;;;;;;25.38;21.20;;;;;;;;;;5381118;26;20015;-61
2024/04/09 07:36:14;;;;;;;28.52;21.70;;;;;;;;;;5381321;26;20011;-62
2024/04/09 07:38:41;;;;;;;27.20;21.50;;;;;;;;;;5380136;26;20000;-66
2024/04/09 07:41:07;;;;;;;24.58;21.73;;;;;;;;;;5377962;26;20010;-66
2024/04/09 07:43:33;;;;;;;24.75;20.65;;;;;;;;;;5381963;26;19996;-67
2024/04/09 07:46:00;;;;;;;32.53;23.00;;;;;;;;;;5376273;26;20097;-62
2024/04/09 07:48:26;;;;;;;25.75;22.77;;;;;;;;;;5375931;26;20410;-70
2024/04/09 07:50:53;;;;;;;26.38;22.45;;;;;;;;;;5377892;26;20039;-61
2024/04/09 07:53:19;;;;;;;26.70;22.10;;;;;;;;;;5377914;26;20000;-62
2024/04/09 07:55:46;;;;;;;27.70;21.90;;;;;;;;;;5376866;26;20005;-64
2024/04/09 07:58:12;;;;;;;26.60;22.65;;;;;;;;;;5376674;26;20321;-67
2024/04/09 08:00:39;;;;;;;28.92;22.20;;;;;;;;;;5358021;26;20000;-63
2024/04/09 08:03:05;;;;;;;27.98;23.85;;;;;;;;;;5377808;26;19996;-61
2024/04/09 08:05:31;;;;;;;29.98;23.70;;;;;;;;;;5376957;26;20047;-62
2024/04/09 08:07:57;;;;;;;27.65;22.45;;;;;;;;;;5380563;26;20019;-59
2024/04/09 08:10:23;;;;;;;27.52;21.77;;;;;;;;;;5380646;26;19996;-66
2024/04/09 08:12:50;;;;;;;26.60;22.90;;;;;;;;;;5381829;26;20000;-66
2024/04/09 08:15:22;;;;;;;26.90;22.38;;;;;;;;;;5381301;26;20470;-63
2024/04/09 08:17:48;;;;;;;24.75;22.15;;;;;;;;;;5379272;26;20000;-64
2024/04/09 08:20:20;;;;;;;30.13;24.08;;;;;;;;;;5381877;26;20019;-64
2024/04/09 08:22:50;;;;;;;27.38;22.17;;;;;;;;;;5380975;26;20015;-62
2024/04/09 08:25:17;;;;;;;38.15;23.50;;;;;;;;;;5380710;26;20004;-64
2024/04/09 08:27:43;;;;;;;31.40;22.70;;;;;;;;;;5382278;26;20069;-60
2024/04/09 08:30:13;;;;;;;25.50;20.15;;;;;;;;;;5379169;26;20000;-63
2024/04/09 08:32:42;;;;;;;26.73;22.45;;;;;;;;;;5381878;26;20000;-62
2024/04/09 08:35:11;;;;;;;29.38;20.50;;;;;;;;;;5379286;26;20409;-61
2024/04/09 08:37:37;;;;;;;26.98;20.75;;;;;;;;;;5380938;26;20476;-63
2024/04/09 08:40:04;;;;;;;27.85;20.95;;;;;;;;;;5380820;26;20342;-66
2024/04/09 08:42:55;;;;;;;24.08;20.73;;;;;;;;;;5379822;26;20089;-64
2024/04/09 08:45:23;;;;;;;25.45;22.10;;;;;;;;;;5376828;26;20086;-61
2024/04/09 08:47:49;;;;;;;26.55;20.95;;;;;;;;;;5380800;26;20004;-60
2024/04/09 08:50:15;;;;;;;26.98;21.35;;;;;;;;;;5378564;26;20004;-64
2024/04/09 08:52:42;;;;;;;27.33;22.55;;;;;;;;;;5379470;26;20015;-63
2024/04/09 08:55:08;;;;;;;22.40;19.95;;;;;;;;;;5378246;26;20000;-70
2024/04/09 08:57:35;;;;;;;28.23;21.90;;;;;;;;;;5378667;26;20332;-70
2024/04/09 09:00:04;;;;;;;29.20;21.58;;;;;;;;;;5376854;26;20011;-70
2024/04/09 09:02:30;;;;;;;28.45;22.10;;;;;;;;;;5381281;26;20028;-60
2024/04/09 09:04:56;;;;;;;25.23;22.48;;;;;;;;;;5380421;26;20000;-60
2024/04/09 09:07:24;;;;;;;25.75;21.30;;;;;;;;;;5380687;26;20000;-64
2024/04/09 09:09:50;;;;;;;28.30;21.58;;;;;;;;;;5378110;26;20461;-69
2024/04/09 09:12:16;;;;;;;27.85;22.90;;;;;;;;;;5380213;26;20000;-58
2024/04/09 09:14:49;;;;;;;28.60;22.85;;;;;;;;;;5381026;26;20028;-58
2024/04/09 09:17:15;;;;;;;25.25;22.60;;;;;;;;;;5377222;26;20012;-58
2024/04/09 09:19:41;;;;;;;24.88;22.10;;;;;;;;;;5379910;26;20455;-58
2024/04/09 09:22:11;;;;;;;34.67;23.00;;;;;;;;;;5379272;26;20063;-58
2024/04/09 09:24:38;;;;;;;25.17;22.35;;;;;;;;;;5379665;26;20538;-56
2024/04/09 09:27:08;;;;;;;26.17;22.88;;;;;;;;;;5371527;26;20415;-55
2024/04/09 09:29:36;;;;;;;27.25;23.00;;;;;;;;;;5372087;26;20340;-57
2024/04/09 09:32:02;;;;;;;30.25;23.70;;;;;;;;;;5377238;26;20036;-53
2024/04/09 09:34:31;;;;;;;29.83;22.92;;;;;;;;;;5379463;26;20004;-57
2024/04/09 09:37:00;;;;;;;26.05;22.90;;;;;;;;;;5378476;26;20038;-57
2024/04/09 09:39:27;;;;;;;26.23;22.48;;;;;;;;;;5380132;26;20000;-62
2024/04/09 09:41:55;;;;;;;25.25;22.50;;;;;;;;;;5367424;26;20013;-64
2024/04/09 09:44:22;;;;;;;28.90;23.38;;;;;;;;;;5379910;26;20104;-65
2024/04/09 09:46:48;;;;;;;28.08;23.45;;;;;;;;;;5379503;26;20130;-66
2024/04/09 09:49:15;;;;;;;29.08;23.60;;;;;;;;;;5378857;26;20012;-69
2024/04/09 09:51:41;;;;;;;29.73;23.52;;;;;;;;;;5378561;26;20483;-65
2024/04/09 09:54:07;;;;;;;26.65;22.45;;;;;;;;;;5379545;26;20008;-65
2024/04/09 09:56:34;;;;;;;28.77;22.70;;;;;;;;;;5378670;26;20118;-64
2024/04/09 09:59:02;;;;;;;25.38;22.02;;;;;;;;;;5376828;26;20063;-64
2024/04/09 10:01:28;;;;;;;27.42;21.92;;;;;;;;;;5378957;26;20032;-63
2024/04/09 10:03:55;;;;;;;31.08;22.67;;;;;;;;;;5378866;26;20012;-63
2024/04/09 10:06:21;;;;;;;26.40;22.42;;;;;;;;;;5380637;26;20035;-62
2024/04/09 10:08:48;;;;;;;27.90;22.88;;;;;;;;;;5368681;26;20040;-61
2024/04/09 10:11:14;;;;;;;27.75;23.23;;;;;;;;;;5377760;26;20000;-62
2024/04/09 10:13:51;;;;;;;25.33;22.50;;;;;;;;;;5377361;26;20073;-64
2024/04/09 10:16:17;;;;;;;28.30;23.90;;;;;;;;;;5379372;26;21620;-64
2024/04/09 10:18:46;;;;;;;27.42;22.40;;;;;;;;;;5370071;26;20124;-63
2024/04/09 10:21:14;;;;;;;26.52;22.75;;;;;;;;;;5373991;26;20011;-67
2024/04/09 10:23:43;;;;;;;28.50;23.02;;;;;;;;;;5381310;26;20007;-58
2024/04/09 10:26:09;;;;;;;27.33;22.60;;;;;;;;;;5383793;26;20319;-59
2024/04/09 10:28:36;;;;;;;25.02;22.17;;;;;;;;;;5365981;26;20015;-56
2024/04/09 10:31:14;;;;;;;29.52;22.23;;;;;;;;;;5354864;26;20332;-68
2024/04/09 10:33:40;;;;;;;26.73;23.42;;;;;;;;;;5377810;26;20019;-72
2024/04/09 10:36:07;;;;;;;26.63;23.45;;;;;;;;;;5377804;26;20024;-67
2024/04/09 10:38:34;;;;;;;29.02;24.55;;;;;;;;;;5387637;26;20020;-48
2024/04/09 10:41:01;;;;;;;29.27;24.55;;;;;;;;;;5376919;26;20370;-48
2024/04/09 10:43:46;;;;;;;28.52;22.83;;;;;;;;;;5377538;26;20077;-60
2024/04/09 10:46:12;;;;;;;28.40;22.20;;;;;;;;;;5344439;26;20001;-58
2024/04/09 10:48:39;;;;;;;26.45;23.75;;;;;;;;;;5379454;26;20399;-57
2024/04/09 10:51:07;;;;;;;31.13;22.23;;;;;;;;;;5379171;26;20004;-58
2024/04/09 10:56:43;;;;;;;25.13;22.45;;;;;;;;;;5354804;26;20015;-57
2024/04/09 10:59:15;;;;;;;30.52;24.63;;;;;;;;;;5359835;26;20036;-58
2024/04/09 11:01:42;;;;;;;30.25;23.80;;;;;;;;;;5381794;26;20018;-59
2024/04/09 11:04:11;;;;;;;29.15;24.50;;;;;;;;;;5382708;26;20036;-58
2024/04/09 11:06:37;;;;;;;26.15;23.40;;;;;;;;;;5383231;26;20370;-57
2024/04/09 11:09:05;;;;;;;27.58;24.67;;;;;;;;;;5382920;26;20008;-57
2024/04/09 11:11:31;;;;;;;26.80;24.00;;;;;;;;;;5382776;26;20386;-59
2024/04/09 11:13:57;;;;;;;31.98;24.10;;;;;;;;;;5381870;26;20011;-58
2024/04/09 11:16:23;;;;;;;27.65;24.33;;;;;;;;;;5382831;26;20043;-59
2024/04/09 11:18:59;;;;;;;31.63;25.27;;;;;;;;;;5375750;26;20009;-58
2024/04/09 11:21:27;;;;;;;30.50;24.73;;;;;;;;;;5388782;26;20012;-57
2024/04/09 11:23:53;;;;;;;29.23;25.50;;;;;;;;;;5360236;26;20095;-58
2024/04/09 11:26:20;;;;;;;31.02;25.45;;;;;;;;;;5382147;26;20078;-58
2024/04/09 11:28:52;;;;;;;34.33;25.60;;;;;;;;;;5371076;26;20009;-59
2024/04/09 11:31:24;;;;;;;36.40;27.60;;;;;;;;;;5368158;26;20040;-59
2024/04/09 11:33:50;;;;;;;30.25;25.95;;;;;;;;;;5382741;26;20028;-60
2024/04/09 11:36:16;;;;;;;32.38;26.58;;;;;;;;;;5380247;26;20004;-59
2024/04/09 11:38:42;;;;;;;36.25;26.45;;;;;;;;;;5382216;26;20131;-57
2024/04/09 11:41:09;;;;;;;31.15;25.10;;;;;;;;;;5382282;26;20051;-57
2024/04/09 11:43:35;;;;;;;28.08;24.33;;;;;;;;;;5381971;26;20001;-58
2024/04/09 11:46:02;;;;;;;33.42;27.52;;;;;;;;;;5382140;26;20434;-59
2024/04/09 11:48:28;;;;;;;33.97;26.67;;;;;;;;;;5381612;26;20004;-58
2024/04/09 11:50:54;;;;;;;35.55;27.50;;;;;;;;;;5381998;26;20107;-59
2024/04/09 11:53:20;;;;;;;30.38;26.30;;;;;;;;;;5382195;26;20453;-58
2024/04/09 11:55:46;;;;;;;34.78;29.25;;;;;;;;;;5381511;26;20015;-58
2024/04/09 11:58:13;;;;;;;31.02;26.92;;;;;;;;;;5372735;26;20004;-56
2024/04/09 12:00:39;;;;;;;30.80;27.30;;;;;;;;;;5382411;26;20000;-59
2024/04/09 12:03:05;;;;;;;32.03;27.63;;;;;;;;;;5380029;26;20458;-59
2024/04/09 12:05:32;;;;;;;32.55;26.63;;;;;;;;;;5371899;26;20000;-57
2024/04/09 12:08:01;;;;;;;31.92;27.92;;;;;;;;;;5374031;26;20154;-58
2024/04/09 12:10:27;;;;;;;34.47;28.20;;;;;;;;;;5368390;26;20000;-58
2024/04/09 12:12:54;;;;;;;34.47;26.48;;;;;;;;;;5369421;26;20010;-58
2024/04/09 12:15:20;;;;;;;30.10;26.27;;;;;;;;;;5354538;26;20000;-58
2024/04/09 12:17:46;;;;;;;31.80;27.38;;;;;;;;;;5378367;26;20435;-59
2024/04/09 12:20:12;;;;;;;29.73;25.05;;;;;;;;;;5379146;26;20012;-59
2024/04/09 12:22:38;;;;;;;27.50;24.60;;;;;;;;;;5348685;26;20342;-59
2024/04/09 12:25:04;;;;;;;29.25;25.55;;;;;;;;;;5362518;26;20061;-57
2024/04/09 12:27:31;;;;;;;28.60;24.45;;;;;;;;;;5381816;26;20007;-58
2024/04/09 12:29:57;;;;;;;29.98;23.75;;;;;;;;;;5380486;26;20334;-52
2024/04/09 12:32:23;;;;;;;29.73;25.77;;;;;;;;;;5379518;26;20430;-67
2024/04/09 12:34:50;;;;;;;29.40;25.35;;;;;;;;;;5371688;26;19997;-72
2024/04/09 12:37:16;;;;;;;30.52;25.80;;;;;;;;;;5375664;26;20004;-68
2024/04/09 12:39:42;;;;;;;27.80;24.50;;;;;;;;;;5375286;26;20109;-63
2024/04/09 12:42:08;;;;;;;30.45;26.00;;;;;;;;;;5372350;26;19997;-70
2024/04/09 12:44:35;;;;;;;28.73;25.63;;;;;;;;;;5380391;26;20032;-71
2024/04/09 12:47:01;;;;;;;30.48;25.25;;;;;;;;;;5371454;26;20010;-68
2024/04/09 12:49:28;;;;;;;30.20;26.48;;;;;;;;;;5375903;26;20008;-62
2024/04/09 12:52:25;;;;;;;30.15;25.83;;;;;;;;;;5365401;26;19997;-60
2024/04/09 12:54:51;;;;;;;30.13;27.00;;;;;;;;;;5360235;26;20367;-56
2024/04/09 12:57:17;;;;;;;29.85;25.88;;;;;;;;;;5362119;26;20028;-52
2024/04/09 12:59:44;;;;;;;28.35;25.33;;;;;;;;;;5339714;26;20446;-53
2024/04/09 13:02:15;;;;;;;36.28;26.13;;;;;;;;;;5364505;26;20023;-66
2024/04/09 13:04:42;;;;;;;29.73;25.40;;;;;;;;;;5356958;26;19996;-65
2024/04/09 13:07:09;;;;;;;32.95;25.80;;;;;;;;;;5379754;26;20007;-65
2024/04/09 13:09:36;;;;;;;29.70;26.10;;;;;;;;;;5379443;26;20474;-66
2024/04/09 13:12:02;;;;;;;30.50;24.90;;;;;;;;;;5379237;26;20000;-65
2024/04/09 13:14:28;;;;;;;28.52;25.55;;;;;;;;;;5379231;26;20000;-64
2024/04/09 13:16:54;;;;;;;27.15;24.45;;;;;;;;;;5379235;26;20535;-64
2024/04/09 13:19:20;;;;;;;30.10;26.67;;;;;;;;;;5378804;26;20082;-59
2024/04/09 13:21:49;;;;;;;29.85;26.02;;;;;;;;;;5377783;26;20011;-61
2024/04/09 13:24:15;;;;;;;28.27;25.13;;;;;;;;;;5377757;26;20015;-61
2024/04/09 13:26:41;;;;;;;29.25;26.17;;;;;;;;;;5367629;26;20028;-61
2024/04/09 13:29:07;;;;;;;29.50;26.25;;;;;;;;;;5367516;26;20004;-64
2024/04/09 13:31:33;;;;;;;30.65;25.95;;;;;;;;;;5378000;26;20503;-64
2024/04/09 13:34:01;;;;;;;35.22;26.67;;;;;;;;;;5379625;26;20072;-60
2024/04/09 13:36:27;;;;;;;29.13;26.08;;;;;;;;;;5379560;26;20011;-60
2024/04/09 13:38:53;;;;;;;30.63;24.98;;;;;;;;;;5378957;26;20055;-66
2024/04/09 13:41:20;;;;;;;25.77;21.95;;;;;;;;;;5384337;26;20337;-61
2024/04/09 13:43:46;;;;;;;23.40;19.73;;;;;;;;;;5369066;26;20002;-72
2024/04/09 13:46:12;;;;;;;20.00;15.57;;;;;;;;;;5379462;26;20011;-60
2024/04/09 13:48:40;;;;;;;12.40;10.00;;;;;;;;;;5378226;26;20016;-63
2024/04/09 13:51:06;;;;;;;11.13;8.55;;;;;;;;;;5362584;26;20048;-64
2024/04/09 13:53:32;;;;;;;8.82;7.45;;;;;;;;;;5379284;26;20073;-61
2024/04/09 13:55:58;;;;;;;8.60;7.45;;;;;;;;;;5380066;26;20008;-68
2024/04/09 13:58:24;;;;;;;7.45;6.63;;;;;;;;;;5380059;26;20001;-61
2024/04/09 14:00:50;;;;;;;8.35;6.65;;;;;;;;;;5378077;26;20000;-65
2024/04/09 14:03:16;;;;;;;10.88;5.82;;;;;;;;;;5378077;26;20000;-68
2024/04/09 14:05:43;;;;;;;9.65;5.93;;;;;;;;;;5376558;26;20012;-68
2024/04/09 14:08:09;;;;;;;10.20;5.47;;;;;;;;;;5379617;26;20516;-61
2024/04/09 14:10:40;;;;;;;9.32;6.18;;;;;;;;;;5360926;26;20010;-62
2024/04/09 14:13:05;;;;;;;7.22;6.38;;;;;;;;;;5380309;26;20023;-63
2024/04/09 14:15:35;;;;;;;10.18;6.13;;;;;;;;;;5379572;26;20454;-62
2024/04/09 14:18:01;;;;;;;10.32;6.00;;;;;;;;;;5371235;26;20080;-62
2024/04/09 14:20:28;;;;;;;9.75;6.25;;;;;;;;;;5359410;26;20005;-60
2024/04/09 14:22:54;;;;;;;12.18;7.32;;;;;;;;;;5379412;26;20044;-60
2024/04/09 14:25:20;;;;;;;8.35;5.78;;;;;;;;;;5379620;26;20020;-61